Weather History for Holyoke AP, Holyoke, CO, CO

Change the Weather History Date:

Friday, January 31, 2014

  Actual Average Record
Temperature  
Mean Temperature 17 °F -  
Max Temperature 26 °F 42 °F 26 °F (2014)
Min Temperature 8 °F 14 °F 8 °F (2014)
Degree Days  
Heating Degree Days 48    
Moisture  
Dew Point 16 °F    
Average Humidity 85    
Maximum Humidity 93    
Minimum Humidity 69    
Precipitation  
Precipitation 0.00 in - - ()
Sea Level Pressure  
Sea Level Pressure 29.83 in    
Wind  
Wind Speed 9 mph (SSE)    
Max Wind Speed 15 mph    
Max Gust Speed -    
Visibility 7 miles    
Events Snow    
Averages and records for this station are not official NWS values.
T = Trace of Precipitation, MM = Missing Value Source: NWS Daily Summary

Daily Weather History Graph

Daily Weather History Graph

Search for Another Location

Airport:

Trip Planner

Search our weather history database for the weather conditions in past years. The results will help you decide how hot, cold, wet, or windy it might be!

Date:

Astronomy

Jan. 31, 2014 Rise Set
Actual Time 6:59 AM MST 5:05 PM MST
Civil Twilight 6:30 AM MST 5:34 PM MST
Nautical Twilight 5:58 AM MST 6:07 PM MST
Astronomical Twilight 5:25 AM MST 6:39 PM MST
Moon 7:10 AM MST (1/31) 6:33 PM MST (1/31)
Length of Visible Light 11h 04m
Length of Day
10h 06m
New Moon, 1% of the Moon is Illuminated
Jan 31
New Moon
Feb 6
First Quarter
Feb 14
Full
Feb 22
Last Quarter
Mar 1
New

Hourly Weather History & Observations

Time (MST) Temp. Windchill Dew Point Humidity Pressure Visibility Wind Dir Wind Speed Gust Speed Precip Events Conditions
12:15 AM 24.8 °F 14.0 °F 21.2 °F 86% 29.85 in 1.2 mi ENE 11.5 mph - N/A Snow Light Snow
12:35 AM 24.8 °F 14.0 °F 21.2 °F 86% 29.86 in 1.2 mi ENE 11.5 mph - N/A Snow Light Snow
12:55 AM 23.0 °F 11.7 °F 21.2 °F 93% 29.85 in 1.0 mi ENE 11.5 mph - N/A Snow Snow
1:15 AM 23.0 °F 10.6 °F 19.4 °F 86% 29.83 in 1.5 mi ENE 13.8 mph - N/A Snow Light Snow
1:35 AM 23.0 °F 10.1 °F 19.4 °F 86% 29.84 in 0.8 mi East 15.0 mph - N/A Snow Snow
1:55 AM 23.0 °F 10.6 °F 19.4 °F 86% 29.84 in 1.2 mi ENE 13.8 mph - N/A Snow Snow
2:15 AM 21.2 °F 8.3 °F 19.4 °F 93% 29.85 in 1.0 mi East 13.8 mph - N/A Snow Snow
2:35 AM 21.2 °F 9.5 °F 19.4 °F 93% 29.86 in 1.0 mi East 11.5 mph - N/A Snow Light Snow
2:55 AM 21.2 °F 10.1 °F 19.4 °F 93% 29.86 in 1.0 mi East 10.4 mph - N/A Snow Snow
3:15 AM 21.2 °F 10.1 °F 19.4 °F 93% 29.86 in 1.2 mi East 10.4 mph - N/A Snow Light Snow
3:35 AM 21.2 °F 11.7 °F 19.4 °F 93% 29.88 in 1.5 mi East 8.1 mph - N/A Snow Light Snow
3:55 AM 21.2 °F 13.6 °F 19.4 °F 93% 29.89 in 1.2 mi ENE 5.8 mph - N/A Snow Light Snow
4:15 AM 21.2 °F 13.6 °F 19.4 °F 93% 29.89 in 1.5 mi ENE 5.8 mph - N/A Snow Light Snow
4:35 AM 21.2 °F 14.9 °F 19.4 °F 93% 29.89 in 1.2 mi East 4.6 mph - N/A Snow Light Snow
4:55 AM 21.2 °F 12.6 °F 19.4 °F 93% 29.90 in 2.0 mi East 6.9 mph - N/A Snow Light Snow
5:15 AM 21.2 °F 13.6 °F 19.4 °F 93% 29.91 in 2.0 mi ESE 5.8 mph - N/A Snow Light Snow
5:35 AM 21.2 °F 16.4 °F 19.4 °F 93% 29.91 in 2.5 mi ESE 3.5 mph - N/A Snow Light Snow
5:55 AM 21.2 °F 13.6 °F 19.4 °F 93% 29.91 in 2.0 mi East 5.8 mph - N/A Snow Light Snow
6:15 AM 21.2 °F 14.9 °F 19.4 °F 93% 29.92 in 3.0 mi ESE 4.6 mph - N/A Snow Light Snow
6:35 AM 21.2 °F 14.9 °F 19.4 °F 93% 29.92 in 3.0 mi SE 4.6 mph - N/A Snow Light Snow
6:55 AM 21.2 °F 13.6 °F 19.4 °F 93% 29.92 in 4.0 mi SE 5.8 mph - N/A Snow Light Snow
7:15 AM 21.2 °F 14.9 °F 17.6 °F 86% 29.92 in 2.0 mi SE 4.6 mph - N/A Snow Light Snow
7:35 AM 21.2 °F 12.6 °F 17.6 °F 86% 29.93 in 2.5 mi SSE 6.9 mph - N/A Snow Light Snow
7:55 AM 21.2 °F 12.6 °F 17.6 °F 86% 29.92 in 2.0 mi SSE 6.9 mph - N/A Snow Light Snow
8:15 AM 21.2 °F 10.9 °F 19.4 °F 93% 29.91 in 4.0 mi SE 9.2 mph - N/A Snow Light Snow
8:35 AM 21.2 °F 10.1 °F 17.6 °F 86% 29.91 in 10.0 mi SSE 10.4 mph - N/A Snow Light Snow
8:55 AM 21.2 °F 10.9 °F 17.6 °F 86% 29.91 in 10.0 mi SSE 9.2 mph - N/A   Overcast
9:15 AM 21.2 °F 11.7 °F 17.6 °F 86% 29.91 in 10.0 mi South 8.1 mph - N/A   Overcast
9:35 AM 21.2 °F 10.1 °F 17.6 °F 86% 29.91 in 10.0 mi South 10.4 mph - N/A   Overcast
9:55 AM 23.0 °F 11.7 °F 17.6 °F 80% 29.91 in 10.0 mi SSE 11.5 mph - N/A   Overcast
10:15 AM 23.0 °F 12.4 °F 17.6 °F 80% 29.90 in 10.0 mi South 10.4 mph - N/A   Overcast
10:35 AM 24.8 °F 13.4 °F 19.4 °F 80% 29.89 in 10.0 mi South 12.7 mph - N/A   Overcast
10:55 AM 24.8 °F 13.4 °F 19.4 °F 80% 29.89 in 10.0 mi South 12.7 mph - N/A   Overcast
11:15 AM 24.8 °F 13.4 °F 19.4 °F 80% 29.87 in 10.0 mi South 12.7 mph - N/A   Overcast
11:35 AM 24.8 °F 12.4 °F 17.6 °F 74% 29.86 in 10.0 mi South 15.0 mph - N/A   Overcast
11:55 AM 24.8 °F 12.9 °F 17.6 °F 74% 29.85 in 10.0 mi South 13.8 mph - N/A   Overcast
12:15 PM 24.8 °F 12.4 °F 17.6 °F 74% 29.84 in 10.0 mi South 15.0 mph - N/A   Overcast
12:35 PM 24.8 °F 14.0 °F 17.6 °F 74% 29.81 in 10.0 mi South 11.5 mph - N/A   Overcast
12:55 PM 24.8 °F 14.0 °F 17.6 °F 74% 29.81 in 10.0 mi South 11.5 mph - N/A   Overcast
1:15 PM 24.8 °F 14.6 °F 17.6 °F 74% 29.81 in 10.0 mi South 10.4 mph - N/A   Overcast
1:35 PM 24.8 °F 14.0 °F 17.6 °F 74% 29.80 in 10.0 mi SSW 11.5 mph - N/A   Overcast
1:55 PM 24.8 °F 15.3 °F 17.6 °F 74% 29.79 in 10.0 mi South 9.2 mph - N/A   Overcast
2:15 PM 26.6 °F 17.5 °F 17.6 °F 69% 29.79 in 10.0 mi SW 9.2 mph - N/A   Overcast
2:35 PM 24.8 °F 16.9 °F 17.6 °F 74% 29.77 in 10.0 mi South 6.9 mph - N/A   Overcast
2:55 PM 24.8 °F 17.9 °F 17.6 °F 74% 29.77 in 10.0 mi South 5.8 mph - N/A   Overcast
3:15 PM 24.8 °F 16.1 °F 17.6 °F 74% 29.77 in 10.0 mi South 8.1 mph - N/A   Mostly Cloudy
3:35 PM 24.8 °F 15.3 °F 19.4 °F 80% 29.77 in 10.0 mi South 9.2 mph - N/A   Overcast
3:55 PM 23.0 °F 14.7 °F 17.6 °F 80% 29.76 in 10.0 mi South 6.9 mph - N/A   Scattered Clouds
4:15 PM 21.2 °F 13.6 °F 17.6 °F 86% 29.76 in 10.0 mi South 5.8 mph - N/A   Clear
4:35 PM 19.4 °F 12.8 °F 14.0 °F 80% 29.75 in 10.0 mi South 4.6 mph - N/A   Clear
4:55 PM 19.4 °F 14.3 °F 14.0 °F 80% 29.77 in 10.0 mi SSW 3.5 mph - N/A   Clear
5:15 PM 17.6 °F 12.3 °F 12.2 °F 79% 29.77 in 10.0 mi South 3.5 mph - N/A   Clear
5:35 PM 17.6 °F 10.7 °F 14.0 °F 86% 29.77 in 10.0 mi South 4.6 mph - N/A   Clear
5:55 PM 17.6 °F 8.2 °F 14.0 °F 86% 29.77 in 10.0 mi South 6.9 mph - N/A   Clear
6:15 PM 17.6 °F 8.2 °F 14.0 °F 86% 29.78 in 10.0 mi South 6.9 mph - N/A   Clear
6:35 PM 17.6 °F 9.3 °F 14.0 °F 86% 29.79 in 10.0 mi SSW 5.8 mph - N/A   Clear
6:55 PM 17.6 °F 9.3 °F 14.0 °F 86% 29.79 in 10.0 mi SSW 5.8 mph - N/A   Mostly Cloudy
7:15 PM 17.6 °F 10.7 °F 14.0 °F 86% 29.78 in 10.0 mi South 4.6 mph - N/A   Mostly Cloudy
7:35 PM 14.0 °F 6.5 °F 12.2 °F 93% 29.77 in 10.0 mi South 4.6 mph - N/A   Clear
7:55 PM 14.0 °F 6.5 °F 12.2 °F 93% 29.78 in 10.0 mi South 4.6 mph - N/A   Scattered Clouds
8:15 PM 14.0 °F 6.5 °F 10.4 °F 86% 29.77 in 10.0 mi SSW 4.6 mph - N/A   Scattered Clouds
8:35 PM 14.0 °F - 10.4 °F 86% 29.77 in 5.0 mi Calm Calm - N/A   Scattered Clouds
8:55 PM 14.0 °F - 10.4 °F 86% 29.77 in 7.0 mi Calm Calm - N/A   Scattered Clouds
9:15 PM 14.0 °F 6.5 °F 10.4 °F 86% 29.79 in 7.0 mi WSW 4.6 mph - N/A   Scattered Clouds
9:35 PM 14.0 °F 3.9 °F 10.4 °F 86% 29.79 in 10.0 mi West 6.9 mph - N/A   Mostly Cloudy
9:40 PM 14.0 °F 3.9 °F 10.4 °F 86% 29.79 in 10.0 mi West 6.9 mph - N/A   Scattered Clouds
10:15 PM 8.6 °F 0.1 °F 5.0 °F 85% 29.78 in 10.0 mi SW 4.6 mph - N/A   Clear
10:35 PM 10.4 °F 2.2 °F 6.8 °F 85% 29.77 in 10.0 mi SW 4.6 mph - N/A   Scattered Clouds
10:55 PM 8.6 °F -2.6 °F 3.2 °F 79% 29.77 in 10.0 mi SSW 6.9 mph - N/A   Scattered Clouds
11:15 PM 12.2 °F 2.9 °F 8.6 °F 85% 29.77 in 10.0 mi WSW 5.8 mph - N/A   Scattered Clouds
11:35 PM 12.2 °F 1.7 °F 8.6 °F 85% 29.77 in 10.0 mi West 6.9 mph - N/A   Mostly Cloudy
11:55 PM 12.2 °F 2.9 °F 8.6 °F 85% 29.77 in 10.0 mi West 5.8 mph - N/A   Overcast